createdAt,value
2022-11-26T00:00:57.149Z,7.18
2022-11-26T00:03:25.198Z,7.54
2022-11-26T00:05:57.934Z,7.94
2022-11-26T00:08:31.437Z,7.97
2022-11-26T00:11:01.036Z,7.72
2022-11-26T00:13:31.360Z,7.79
2022-11-26T00:15:59.276Z,7.52
2022-11-26T00:18:27.437Z,7.24
2022-11-26T00:20:57.995Z,7.40
2022-11-26T00:23:28.514Z,7.47
2022-11-26T00:25:58.809Z,7.32
2022-11-26T00:28:32.975Z,7.29
2022-11-26T00:31:03.306Z,7.65
2022-11-26T00:33:32.816Z,7.50
2022-11-26T00:36:04.757Z,7.15
2022-11-26T00:38:32.960Z,7.46
2022-11-26T00:41:00.885Z,7.44
2022-11-26T00:43:28.837Z,7.67
2022-11-26T00:45:58.257Z,7.72
2022-11-26T00:48:26.231Z,7.60
2022-11-26T00:50:54.266Z,7.77
2022-11-26T00:53:25.429Z,7.95
2022-11-26T00:55:53.366Z,7.44
2022-11-26T00:58:24.943Z,7.56
2022-11-26T01:00:53.801Z,7.50
2022-11-26T01:03:23.166Z,7.30
2022-11-26T01:05:52.583Z,7.18
2022-11-26T01:08:28.741Z,7.12
2022-11-26T01:10:56.738Z,7.41
2022-11-26T01:13:24.772Z,7.41
2022-11-26T01:15:52.832Z,7.31
2022-11-26T01:18:23.578Z,7.27
2022-11-26T01:20:52.093Z,7.16
2022-11-26T01:23:21.050Z,7.43
2022-11-26T01:25:49.250Z,7.08
2022-11-26T01:28:19.621Z,7.02
2022-11-26T01:30:48.151Z,7.20
2022-11-26T01:33:16.103Z,7.02
2022-11-26T01:35:45.383Z,7.01
2022-11-26T01:38:15.733Z,6.45
2022-11-26T01:41:03.546Z,6.81
2022-11-26T01:43:37.509Z,6.31
2022-11-26T01:46:14.679Z,6.70
2022-11-26T01:48:43.054Z,6.61
2022-11-26T01:51:13.161Z,6.08
2022-11-26T01:53:49.164Z,6.71
2022-11-26T01:56:34.296Z,6.39
2022-11-26T01:59:09.426Z,6.22
2022-11-26T02:01:37.910Z,6.46
2022-11-26T02:04:14.320Z,5.99
2022-11-26T02:06:46.209Z,6.19
2022-11-26T02:09:15.298Z,6.18
2022-11-26T02:11:43.375Z,6.11
2022-11-26T02:14:15.682Z,5.98
2022-11-26T02:17:10.780Z,6.39
2022-11-26T02:19:53.753Z,6.02
2022-11-26T02:22:43.344Z,5.54
2022-11-26T02:25:18.648Z,5.85
2022-11-26T02:28:07.318Z,5.63
2022-11-26T02:30:39.056Z,6.24
2022-11-26T02:33:12.726Z,6.17
2022-11-26T02:35:43.728Z,6.45
2022-11-26T02:38:14.820Z,6.31
2022-11-26T02:40:42.870Z,5.95
2022-11-26T02:43:10.993Z,6.13
2022-11-26T02:45:43.619Z,6.22
2022-11-26T02:48:15.757Z,6.07
2022-11-26T02:50:48.445Z,5.64
2022-11-26T02:53:21.847Z,5.71
2022-11-26T02:55:54.905Z,5.98
2022-11-26T02:58:22.817Z,6.04
2022-11-26T03:00:52.697Z,5.69
2022-11-26T03:03:26.152Z,5.48
2022-11-26T03:05:57.364Z,5.93
2022-11-26T03:08:26.805Z,6.36
2022-11-26T03:10:54.821Z,6.15
2022-11-26T03:13:22.920Z,5.75
2022-11-26T03:15:52.213Z,5.76
2022-11-26T03:18:20.260Z,5.72
2022-11-26T03:20:52.154Z,5.83
2022-11-26T03:23:20.429Z,5.84
2022-11-26T03:25:48.518Z,5.71
2022-11-26T03:28:17.490Z,5.70
2022-11-26T03:30:45.400Z,5.82
2022-11-26T03:33:14.669Z,6.54
2022-11-26T03:35:42.608Z,6.31
2022-11-26T03:38:10.745Z,6.61
2022-11-26T03:40:38.673Z,6.65
2022-11-26T03:43:06.619Z,5.79
2022-11-26T03:45:34.564Z,6.46
2022-11-26T03:48:02.512Z,5.97
2022-11-26T03:50:31.786Z,5.71
2022-11-26T03:52:59.733Z,5.87
2022-11-26T03:55:27.781Z,5.61
2022-11-26T03:57:55.682Z,5.64
2022-11-26T04:00:23.766Z,5.87
2022-11-26T04:02:52.757Z,6.07
2022-11-26T04:05:20.800Z,6.19
2022-11-26T04:07:50.174Z,6.37
2022-11-26T04:10:18.449Z,6.36
2022-11-26T04:12:46.352Z,6.10
2022-11-26T04:15:14.296Z,6.22
2022-11-26T04:17:42.185Z,6.70
2022-11-26T04:20:10.809Z,6.22
2022-11-26T04:22:38.822Z,6.38
2022-11-26T04:25:08.886Z,5.86
2022-11-26T04:27:36.790Z,5.97
2022-11-26T04:30:05.446Z,6.36
2022-11-26T04:32:33.369Z,6.04
2022-11-26T04:35:01.391Z,6.26
2022-11-26T04:37:29.277Z,6.69
2022-11-26T04:39:57.198Z,6.63
2022-11-26T04:42:26.612Z,6.10
2022-11-26T04:44:54.539Z,6.32
2022-11-26T04:47:22.444Z,6.39
2022-11-26T04:49:50.342Z,6.12
2022-11-26T04:52:18.379Z,5.96
2022-11-26T04:54:49.636Z,5.93
2022-11-26T04:57:17.957Z,5.99
2022-11-26T04:59:47.237Z,5.74
2022-11-26T05:02:15.246Z,5.66
2022-11-26T05:04:43.306Z,6.00
2022-11-26T05:07:11.316Z,5.79
2022-11-26T05:09:39.367Z,5.72
2022-11-26T05:12:07.604Z,5.80
2022-11-26T05:14:35.962Z,5.83
2022-11-26T05:17:05.483Z,5.19
2022-11-26T05:19:34.237Z,5.69
2022-11-26T05:22:02.199Z,5.58
2022-11-26T05:24:30.142Z,5.57
2022-11-26T05:26:58.082Z,5.10
2022-11-26T05:29:26.723Z,5.12
2022-11-26T05:31:54.761Z,5.09
2022-11-26T05:34:24.069Z,4.81
2022-11-26T05:36:51.922Z,5.09
2022-11-26T05:39:19.842Z,4.78
2022-11-26T05:41:47.764Z,5.21
2022-11-26T05:44:15.934Z,4.58
2022-11-26T05:46:44.552Z,4.55
2022-11-26T05:49:12.436Z,4.93
2022-11-26T05:51:41.703Z,4.55
2022-11-26T05:54:14.205Z,4.60
2022-11-26T05:56:43.274Z,4.87
2022-11-26T05:59:11.661Z,4.80
2022-11-26T06:01:39.746Z,4.57
2022-11-26T06:04:07.740Z,4.76
2022-11-26T06:06:35.773Z,4.94
2022-11-26T06:09:05.479Z,5.11
2022-11-26T06:11:33.364Z,5.03
2022-11-26T06:14:01.268Z,4.69
2022-11-26T06:16:29.317Z,5.01
2022-11-26T06:18:57.743Z,5.22
2022-11-26T06:21:25.839Z,5.16
2022-11-26T06:23:59.096Z,4.70
2022-11-26T06:26:29.064Z,5.22
2022-11-26T06:28:57.138Z,4.97
2022-11-26T06:31:25.260Z,4.86
2022-11-26T06:33:55.273Z,5.04
2022-11-26T06:36:23.198Z,4.72
2022-11-26T06:38:51.292Z,4.97
2022-11-26T06:41:19.365Z,5.01
2022-11-26T06:43:48.690Z,5.02
2022-11-26T06:46:16.709Z,5.35
2022-11-26T06:48:44.734Z,5.22
2022-11-26T06:51:14.876Z,5.30
2022-11-26T06:53:43.284Z,5.47
2022-11-26T06:56:19.523Z,5.83
2022-11-26T06:58:49.793Z,5.54
2022-11-26T07:01:20.259Z,5.66
2022-11-26T07:03:48.672Z,6.30
2022-11-26T07:06:18.308Z,6.22
2022-11-26T07:08:46.728Z,6.25
2022-11-26T07:11:15.214Z,5.77
2022-11-26T07:13:43.188Z,5.03
2022-11-26T07:16:13.418Z,5.35
2022-11-26T07:18:41.584Z,5.48
2022-11-26T07:21:11.386Z,5.33
2022-11-26T07:23:39.924Z,4.92
2022-11-26T07:26:09.399Z,4.68
2022-11-26T07:28:37.988Z,4.67
2022-11-26T07:31:12.941Z,4.62
2022-11-26T07:33:45.710Z,4.56
2022-11-26T07:36:16.664Z,4.86
2022-11-26T07:38:44.760Z,4.70
2022-11-26T07:41:15.234Z,4.88
2022-11-26T07:43:44.386Z,4.38
2022-11-26T07:46:15.402Z,4.67
2022-11-26T07:48:43.520Z,4.47
2022-11-26T07:51:18.473Z,4.74
2022-11-26T07:53:46.513Z,4.55
2022-11-26T07:56:14.642Z,4.78
2022-11-26T07:58:43.099Z,4.80
2022-11-26T08:01:13.220Z,4.87
2022-11-26T08:03:42.158Z,5.38
2022-11-26T08:06:11.862Z,5.39
2022-11-26T08:08:41.904Z,5.15
2022-11-26T08:11:13.982Z,5.49
2022-11-26T08:13:41.970Z,5.43
2022-11-26T08:16:10.430Z,5.11
2022-11-26T08:18:38.427Z,5.27
2022-11-26T08:21:06.754Z,5.07
2022-11-26T08:23:35.266Z,5.44
2022-11-26T08:28:56.539Z,5.41
2022-11-26T08:31:25.029Z,5.85
2022-11-26T08:33:53.140Z,5.65
2022-11-26T08:36:21.131Z,5.87
2022-11-26T08:38:49.135Z,5.91
2022-11-26T08:41:18.471Z,5.77
2022-11-26T08:46:34.442Z,5.89
2022-11-26T08:49:02.658Z,6.02
2022-11-26T08:51:30.633Z,6.02
2022-11-26T08:53:58.595Z,6.18
2022-11-26T08:56:27.875Z,6.15
2022-11-26T08:58:55.822Z,5.78
2022-11-26T09:01:25.565Z,5.90
2022-11-26T09:03:55.237Z,6.10
2022-11-26T09:06:24.752Z,5.88
2022-11-26T09:09:10.497Z,5.95
2022-11-26T09:11:41.869Z,6.39
2022-11-26T09:14:10.997Z,6.28
2022-11-26T09:16:39.130Z,5.92
2022-11-26T09:19:08.651Z,6.67
2022-11-26T09:21:37.432Z,6.41
2022-11-26T09:24:05.959Z,6.44
2022-11-26T09:26:34.549Z,6.82
2022-11-26T09:29:04.572Z,6.43
2022-11-26T09:31:32.888Z,6.33
2022-11-26T09:34:02.219Z,6.77
2022-11-26T09:36:30.551Z,6.31
2022-11-26T09:39:00.485Z,6.12
2022-11-26T09:41:39.337Z,6.50
2022-11-26T09:44:27.422Z,6.37
2022-11-26T09:47:13.617Z,6.74
2022-11-26T09:49:51.691Z,6.83
2022-11-26T09:52:23.303Z,6.66
2022-11-26T09:54:56.225Z,7.16
2022-11-26T09:57:31.157Z,7.54
2022-11-26T10:00:00.533Z,7.98
2022-11-26T10:02:28.465Z,7.22
2022-11-26T10:04:56.416Z,7.13
2022-11-26T10:07:40.910Z,6.70
2022-11-26T10:10:17.863Z,7.63
2022-11-26T10:13:26.865Z,7.58
2022-11-26T10:15:59.636Z,7.92
2022-11-26T10:18:38.625Z,8.37
2022-11-26T10:21:32.586Z,7.80
2022-11-26T10:24:18.379Z,7.29
2022-11-26T10:26:46.597Z,7.39
2022-11-26T10:29:22.808Z,7.33
2022-11-26T10:31:56.307Z,7.22
2022-11-26T10:34:31.337Z,7.58
2022-11-26T10:37:01.367Z,7.46
2022-11-26T10:39:29.256Z,7.88
2022-11-26T10:41:57.811Z,7.94
2022-11-26T10:44:40.246Z,7.99
2022-11-26T10:47:31.343Z,7.41
2022-11-26T10:50:46.018Z,8.06
2022-11-26T10:53:07.309Z,8.14
2022-11-26T10:55:39.323Z,7.59
2022-11-26T10:58:15.876Z,7.54
2022-11-26T11:00:47.089Z,7.67
2022-11-26T11:03:38.149Z,6.97
2022-11-26T11:06:27.942Z,7.62
2022-11-26T11:08:56.186Z,7.89
2022-11-26T11:11:26.955Z,8.44
2022-11-26T11:13:55.618Z,8.08
2022-11-26T11:16:28.469Z,8.07
2022-11-26T11:19:00.196Z,7.96
2022-11-26T11:21:34.482Z,7.32
2022-11-26T11:24:17.566Z,7.96
2022-11-26T11:26:47.358Z,7.47
2022-11-26T11:29:32.919Z,7.37
2022-11-26T11:32:04.491Z,8.04
2022-11-26T11:34:38.390Z,8.06
2022-11-26T11:37:19.215Z,8.22
2022-11-26T11:39:47.307Z,7.63
2022-11-26T11:42:23.801Z,7.31
2022-11-26T11:44:53.228Z,7.52
2022-11-26T11:47:37.305Z,7.53
2022-11-26T11:50:21.116Z,7.65
2022-11-26T11:52:57.582Z,7.61
2022-11-26T11:55:36.815Z,8.23
2022-11-26T11:58:30.906Z,7.98
2022-11-26T12:01:08.020Z,8.40
2022-11-26T12:03:59.496Z,9.16
2022-11-26T12:06:40.453Z,8.88
2022-11-26T12:09:18.319Z,8.74
2022-11-26T12:11:54.951Z,8.20
2022-11-26T12:14:27.382Z,8.20
2022-11-26T12:17:01.479Z,7.85
2022-11-26T12:19:39.422Z,7.76
2022-11-26T12:22:16.353Z,7.60
2022-11-26T12:24:51.252Z,7.49
2022-11-26T12:27:31.069Z,8.04
2022-11-26T12:30:02.906Z,7.85
2022-11-26T12:32:37.257Z,7.77
2022-11-26T12:35:12.236Z,7.93
2022-11-26T12:37:43.365Z,7.45
2022-11-26T12:40:24.787Z,7.66
2022-11-26T12:42:59.828Z,7.86
2022-11-26T12:45:41.569Z,7.81
2022-11-26T12:48:19.525Z,7.03
2022-11-26T12:50:52.834Z,7.66
2022-11-26T12:53:35.034Z,7.98
2022-11-26T12:56:15.333Z,7.62
2022-11-26T12:58:53.040Z,8.06
2022-11-26T13:01:21.219Z,7.57
2022-11-26T13:03:49.500Z,7.84
2022-11-26T13:06:30.427Z,8.39
2022-11-26T13:09:09.115Z,8.10
2022-11-26T13:11:44.338Z,7.43
2022-11-26T13:14:18.775Z,7.23
2022-11-26T13:16:55.392Z,7.53
2022-11-26T13:19:31.699Z,8.30
2022-11-26T13:22:14.542Z,8.57
2022-11-26T13:25:06.454Z,8.86
2022-11-26T13:27:50.713Z,8.41
2022-11-26T13:30:22.362Z,8.64
2022-11-26T13:33:27.744Z,8.02
2022-11-26T13:36:15.331Z,7.92
2022-11-26T13:38:53.721Z,8.07
2022-11-26T13:41:40.457Z,7.40
2022-11-26T13:44:38.824Z,7.46
2022-11-26T13:47:11.087Z,7.82
2022-11-26T13:49:44.355Z,7.91
2022-11-26T13:52:16.898Z,7.76
2022-11-26T13:54:50.143Z,7.39
2022-11-26T13:57:22.837Z,7.96
2022-11-26T13:59:52.601Z,7.66
2022-11-26T14:02:44.592Z,7.83
2022-11-26T14:05:15.580Z,7.60
2022-11-26T14:07:44.481Z,7.72
2022-11-26T14:10:41.542Z,8.36
2022-11-26T14:13:16.153Z,7.91
2022-11-26T14:15:59.002Z,8.12
2022-11-26T14:19:03.040Z,7.93
2022-11-26T14:21:31.618Z,7.63
2022-11-26T14:24:02.541Z,7.97
2022-11-26T14:26:34.504Z,7.40
2022-11-26T14:29:17.450Z,7.08
2022-11-26T14:31:51.808Z,7.62
2022-11-26T14:34:29.778Z,7.78
2022-11-26T14:36:59.343Z,7.24
2022-11-26T14:39:28.956Z,7.56
2022-11-26T14:42:05.326Z,7.99
2022-11-26T14:44:35.756Z,7.54
2022-11-26T14:47:12.203Z,7.50
2022-11-26T14:49:42.758Z,7.74
2022-11-26T14:52:19.979Z,7.57
2022-11-26T14:54:51.597Z,7.27
2022-11-26T14:57:24.641Z,7.35
2022-11-26T15:00:02.457Z,7.72
2022-11-26T15:02:32.321Z,7.39
2022-11-26T15:05:02.779Z,7.14
2022-11-26T15:07:32.409Z,7.10
2022-11-26T15:10:06.819Z,7.28
2022-11-26T15:12:37.389Z,6.82
2022-11-26T15:15:10.904Z,7.29
2022-11-26T15:17:44.152Z,7.02
2022-11-26T15:20:16.880Z,7.04
2022-11-26T15:22:51.030Z,7.15
2022-11-26T15:25:21.940Z,7.40
2022-11-26T15:27:55.263Z,6.84
2022-11-26T15:30:27.405Z,6.96
2022-11-26T15:33:00.899Z,7.07
2022-11-26T15:35:30.052Z,7.20
2022-11-26T15:37:58.498Z,7.42
2022-11-26T15:40:31.539Z,7.07
2022-11-26T15:43:03.254Z,7.47
2022-11-26T15:45:39.209Z,7.64
2022-11-26T15:48:27.199Z,6.93
2022-11-26T15:51:00.750Z,6.79
2022-11-26T15:53:33.636Z,7.12
2022-11-26T15:56:02.672Z,7.00
2022-11-26T15:58:34.939Z,8.01
2022-11-26T16:01:08.228Z,7.92
2022-11-26T16:03:43.157Z,7.94
2022-11-26T16:06:29.088Z,7.48
2022-11-26T16:09:00.666Z,7.60
2022-11-26T16:11:29.121Z,7.47
2022-11-26T16:13:57.016Z,7.76
2022-11-26T16:16:28.042Z,8.20
2022-11-26T16:18:59.378Z,7.96
2022-11-26T16:21:29.986Z,7.48
2022-11-26T16:24:00.572Z,7.62
2022-11-26T16:26:29.620Z,7.86
2022-11-26T16:28:57.518Z,7.42
2022-11-26T16:31:26.898Z,7.55
2022-11-26T16:33:54.874Z,7.46
2022-11-26T16:36:25.343Z,7.58
2022-11-26T16:38:54.029Z,8.06
2022-11-26T16:41:23.546Z,8.37
2022-11-26T16:43:51.629Z,8.32
2022-11-26T16:46:23.451Z,7.79
2022-11-26T16:48:53.531Z,8.22
2022-11-26T16:51:22.050Z,8.09
2022-11-26T16:53:50.640Z,8.19
2022-11-26T16:56:23.706Z,8.35
2022-11-26T16:58:52.537Z,8.14
2022-11-26T17:01:20.739Z,8.35
2022-11-26T17:03:48.708Z,7.97
2022-11-26T17:06:25.195Z,7.81
2022-11-26T17:08:54.683Z,8.00
2022-11-26T17:11:22.829Z,8.27
2022-11-26T17:13:51.178Z,8.49
2022-11-26T17:16:20.618Z,8.70
2022-11-26T17:18:49.372Z,8.47
2022-11-26T17:21:18.713Z,8.48
2022-11-26T17:23:46.737Z,8.80
2022-11-26T17:26:19.648Z,8.35
2022-11-26T17:28:48.184Z,7.30
2022-11-26T17:31:16.410Z,7.56
2022-11-26T17:33:44.650Z,6.95
2022-11-26T17:36:19.324Z,7.35
2022-11-26T17:38:47.858Z,7.20
2022-11-26T17:41:16.561Z,7.20
2022-11-26T17:43:44.876Z,7.18
2022-11-26T17:46:22.211Z,7.16
2022-11-26T17:48:55.558Z,7.28
2022-11-26T17:51:27.617Z,7.40
2022-11-26T17:53:55.540Z,8.28
2022-11-26T17:56:26.991Z,7.99
2022-11-26T17:58:55.873Z,7.97
2022-11-26T18:01:23.970Z,7.96
2022-11-26T18:03:52.603Z,8.05
2022-11-26T18:06:27.736Z,7.96
2022-11-26T18:08:57.025Z,8.23
2022-11-26T18:11:43.531Z,8.18
2022-11-26T18:14:11.812Z,8.05
2022-11-26T18:16:40.353Z,8.23
2022-11-26T18:19:10.584Z,8.02
2022-11-26T18:21:39.190Z,7.84
2022-11-26T18:24:09.736Z,8.12
2022-11-26T18:26:38.716Z,8.07
2022-11-26T18:29:07.231Z,8.05
2022-11-26T18:31:39.487Z,8.18
2022-11-26T18:34:08.847Z,8.34
2022-11-26T18:36:36.784Z,8.67
2022-11-26T18:39:05.197Z,8.78
2022-11-26T18:41:34.929Z,8.82
2022-11-26T18:44:04.114Z,8.76
2022-11-26T18:46:32.773Z,8.18
2022-11-26T18:49:00.859Z,8.06
2022-11-26T18:51:28.865Z,8.07
2022-11-26T18:53:56.767Z,7.40
2022-11-26T18:56:26.021Z,7.01
2022-11-26T18:58:55.292Z,7.50
2022-11-26T19:01:25.394Z,7.47
2022-11-26T19:03:53.721Z,7.23
2022-11-26T19:06:24.270Z,7.47
2022-11-26T19:08:57.606Z,6.92
2022-11-26T19:11:26.590Z,6.68
2022-11-26T19:13:56.952Z,6.69
2022-11-26T19:16:26.104Z,6.60
2022-11-26T19:18:54.793Z,6.87
2022-11-26T19:21:25.230Z,7.29
2022-11-26T19:23:54.429Z,7.01
2022-11-26T19:26:22.672Z,7.15
2022-11-26T19:28:51.210Z,7.53
2022-11-26T19:31:21.715Z,7.82
2022-11-26T19:33:54.701Z,7.72
2022-11-26T19:36:23.395Z,7.54
2022-11-26T19:38:56.103Z,7.59
2022-11-26T19:41:26.054Z,7.87
2022-11-26T19:43:54.515Z,7.99
2022-11-26T19:46:25.993Z,7.71
2022-11-26T19:48:55.651Z,7.22
2022-11-26T19:51:25.277Z,7.11
2022-11-26T19:53:55.940Z,6.88
2022-11-26T19:56:25.774Z,7.10
2022-11-26T19:58:54.926Z,6.82
2022-11-26T20:01:25.957Z,7.04
2022-11-26T20:03:54.004Z,6.96
2022-11-26T20:06:23.656Z,6.93
2022-11-26T20:08:51.552Z,6.84
2022-11-26T20:11:19.835Z,6.89
2022-11-26T20:13:50.195Z,6.63
2022-11-26T20:16:20.441Z,7.28
2022-11-26T20:18:50.509Z,7.36
2022-11-26T20:21:20.850Z,6.99
2022-11-26T20:23:50.118Z,6.83
2022-11-26T20:26:19.826Z,7.16
2022-11-26T20:28:47.809Z,7.07
2022-11-26T20:31:21.894Z,7.41
2022-11-26T20:33:53.014Z,6.95
2022-11-26T20:36:23.076Z,6.84
2022-11-26T20:38:53.636Z,6.36
2022-11-26T20:41:21.808Z,5.58
2022-11-26T20:43:54.881Z,5.53
2022-11-26T20:46:24.886Z,5.64
2022-11-26T20:48:55.688Z,5.59
2022-11-26T20:51:24.157Z,5.55
2022-11-26T20:53:52.983Z,5.82
2022-11-26T20:56:22.483Z,5.83
2022-11-26T20:58:52.579Z,5.94
2022-11-26T21:01:22.937Z,5.90
2022-11-26T21:03:51.240Z,5.84
2022-11-26T21:06:28.972Z,5.36
2022-11-26T21:08:58.112Z,5.09
2022-11-26T21:11:26.094Z,5.13
2022-11-26T21:13:53.985Z,5.29
2022-11-26T21:16:23.356Z,5.37
2022-11-26T21:18:54.204Z,5.19
2022-11-26T21:21:24.764Z,5.90
2022-11-26T21:23:52.700Z,5.66
2022-11-26T21:26:22.720Z,5.39
2022-11-26T21:28:52.584Z,5.54
2022-11-26T21:31:22.002Z,6.06
2022-11-26T21:33:56.168Z,5.90
2022-11-26T21:36:26.706Z,6.20
2022-11-26T21:38:55.144Z,6.34
2022-11-26T21:41:24.144Z,6.90
2022-11-26T21:43:52.887Z,6.69
2022-11-26T21:46:22.810Z,6.65
2022-11-26T21:48:52.653Z,6.96
2022-11-26T21:51:21.496Z,7.18
2022-11-26T21:53:51.362Z,6.46
2022-11-26T21:56:20.946Z,6.13
2022-11-26T21:58:49.431Z,6.07
2022-11-26T22:01:20.081Z,5.92
2022-11-26T22:03:50.932Z,6.16
2022-11-26T22:06:20.957Z,6.53
2022-11-26T22:08:50.705Z,6.44
2022-11-26T22:11:20.282Z,6.08
2022-11-26T22:13:48.901Z,6.00
2022-11-26T22:16:19.171Z,6.28
2022-11-26T22:18:47.698Z,6.65
2022-11-26T22:21:18.044Z,6.23
2022-11-26T22:23:46.318Z,6.12
2022-11-26T22:26:15.981Z,6.36
2022-11-26T22:28:43.986Z,6.16
2022-11-26T22:31:13.478Z,6.02
2022-11-26T22:33:42.122Z,6.22
2022-11-26T22:36:10.732Z,6.04
2022-11-26T22:38:39.880Z,5.61
2022-11-26T22:41:09.355Z,5.53
2022-11-26T22:43:38.931Z,5.76
2022-11-26T22:46:07.863Z,5.89
2022-11-26T22:48:36.421Z,5.68
2022-11-26T22:51:05.211Z,5.51
2022-11-26T22:53:34.431Z,5.28
2022-11-26T22:56:04.015Z,5.30
2022-11-26T22:58:33.681Z,5.20
2022-11-26T23:01:05.405Z,5.19
2022-11-26T23:03:36.185Z,5.12
2022-11-26T23:06:06.024Z,5.21
2022-11-26T23:08:34.437Z,5.59
2022-11-26T23:11:16.909Z,5.38
2022-11-26T23:13:47.120Z,5.31
2022-11-26T23:16:17.699Z,5.74
2022-11-26T23:18:45.868Z,5.52
2022-11-26T23:21:15.988Z,5.62
2022-11-26T23:23:44.407Z,5.37
2022-11-26T23:26:15.081Z,5.53
2022-11-26T23:28:43.052Z,5.76
2022-11-26T23:31:15.053Z,5.74
2022-11-26T23:33:44.487Z,6.05
2022-11-26T23:36:13.010Z,6.03
2022-11-26T23:38:41.321Z,5.96
2022-11-26T23:41:09.884Z,6.11
2022-11-26T23:43:39.215Z,5.86
2022-11-26T23:46:08.921Z,6.44
2022-11-26T23:48:37.341Z,6.66
2022-11-26T23:51:09.729Z,6.85
2022-11-26T23:53:38.280Z,6.49
2022-11-26T23:56:08.606Z,6.69
2022-11-26T23:58:36.555Z,6.54
